Thursday, September 20, 2018, 10:47 PM EDT
Back to Local

KHUL, Houlton Int'l Airport

Location: Houlton, ME, United States Lat: 46.117
Local Time: 10:47 PM EDT ( 2:47 GMT) Lon: -67.8
Time Zone: US/Eastern Elev: 492 ft

Show me the last for .
Show Decoded

2018-09-20 21:53 METAR KHUL 210153Z AUTO 00000KT 10SM CLR 08/08 A3030 RMK AO2 SLP262 T00780078 =
2018-09-20 20:53 METAR KHUL 210053Z AUTO 00000KT 10SM SCT065 09/09 A3029 RMK AO2 SLP262 T00890089
                 =
2018-09-20 19:53 METAR KHUL 202353Z AUTO 07003KT 10SM SCT048 10/09 A3028 RMK AO2 SLP256 T01000094
                 10144 20100 51013 =
2018-09-20 19:26 METAR KHUL 202326Z AUTO 00000KT 10SM FEW025 BKN049 OVC060 11/10 A3028 RMK AO2
                 T01110100 =
2018-09-20 18:53 METAR KHUL 202253Z AUTO 00000KT 10SM BKN025 OVC055 11/10 A3027 RMK AO2 SLP252
                 T01110100 =
2018-09-20 18:26 METAR KHUL 202226Z AUTO 00000KT 10SM BKN026 BKN033 OVC065 12/11 A3026 RMK AO2
                 T01170106 =
2018-09-20 17:53 METAR KHUL 202153Z AUTO 00000KT 10SM SCT028 OVC065 12/09 A3025 RMK AO2 SLP248
                 T01220094 =
2018-09-20 17:26 METAR KHUL 202126Z AUTO 00000KT 10SM BKN029 OVC060 13/09 A3025 RMK AO2 T01330089
                 =
2018-09-20 16:53 METAR KHUL 202053Z AUTO VRB05KT 10SM BKN032 OVC060 13/09 A3024 RMK AO2 SLP243
                 T01280094 58001 =
2018-09-20 15:53 METAR KHUL 201953Z AUTO VRB03KT 10SM OVC030 14/08 A3024 RMK AO2 SLP245 T01390078
                 =
2018-09-20 14:53 METAR KHUL 201853Z AUTO 00000KT 10SM OVC034 14/08 A3024 RMK AO2 SLP244 T01390078
                 =
2018-09-20 13:53 METAR KHUL 201753Z AUTO 00000KT 10SM OVC032 14/07 A3025 RMK AO2 SLP245 T01390072
                 10144 20083 58015 =
2018-09-20 12:53 METAR KHUL 201653Z AUTO 00000KT 10SM BKN037 BKN046 OVC060 14/07 A3027 RMK AO2
                 SLP252 T01390072 =
2018-09-20 11:53 METAR KHUL 201553Z AUTO 11004KT 10SM OVC050 13/07 A3029 RMK AO2 SLP259 T01330072
                 =
2018-09-20 10:53 METAR KHUL 201453Z AUTO 12004KT 10SM BKN055 OVC065 12/07 A3029 RMK AO2 SLP261
                 T01170067 50008 =
2018-09-20 09:53 METAR KHUL 201353Z AUTO 08005KT 10SM OVC060 11/07 A3030 RMK AO2 SLP263 T01060067
                 =
2018-09-20 08:02 METAR KHUL 201202Z AUTO 00000KT 10SM SCT029 OVC065 09/08 A3026 RMK AO2 T00890078
                 =
2018-09-20 07:53 METAR KHUL 201153Z AUTO 03004KT 10SM BKN029 OVC065 08/07 A3026 RMK AO2 SLP252
                 70001 T00830072 10083 20067 53016 =
2018-09-20 06:53 METAR KHUL 201053Z AUTO 01003KT 10SM OVC027 08/07 A3024 RMK AO2 SLP242 T00780072
                 =
2018-09-20 06:26 METAR KHUL 201026Z AUTO 00000KT 10SM BKN026 OVC060 07/07 A3024 RMK AO2 T00720072
                 =
2018-09-20 05:53 METAR KHUL 200953Z AUTO 00000KT 10SM OVC060 07/07 A3022 RMK AO2 SLP237 T00720067
                 =
2018-09-20 04:53 METAR KHUL 200853Z AUTO 06003KT 10SM FEW026 OVC060 08/07 A3022 RMK AO2 SLP235
                 T00780067 51003 =
2018-09-20 04:12 METAR KHUL 200812Z AUTO 02003KT 10SM BKN022 OVC060 07/07 A3022 RMK AO2 T00720067
                 =
2018-09-20 03:53 METAR KHUL 200753Z AUTO 03004KT 10SM SCT022 OVC060 07/07 A3022 RMK AO2 SLP235
                 T00720067 =
2018-09-20 02:53 METAR KHUL 200653Z AUTO 02003KT 10SM FEW020 OVC060 07/06 A3021 RMK AO2 SLP232
                 T00720061 =
2018-09-20 01:53 METAR KHUL 200553Z AUTO 00000KT 10SM OVC060 08/06 A3021 RMK AO2 SLP233 T00780061
                 10106 20050 53006 =
2018-09-20 00:53 METAR KHUL 200453Z AUTO 00000KT 10SM BKN055 07/07 A3020 RMK AO2 SLP229 T00670067
                 401440050 =
2018-09-19 23:53 METAR KHUL 200353Z AUTO 24003KT 10SM OVC055 06/06 A3019 RMK AO2 SLP228 T00610061
                 =
2018-09-19 22:53 METAR KHUL 200253Z AUTO 00000KT 10SM CLR 06/06 A3019 RMK AO2 SLP227 T00560056
                 51017 =

Support USWX by starting your Amazon purchase here.